Bedford, Texas
Current Conditions -  °F | °C
As of 2:53 PM on Tuesday 21 Oct 2014 (Local Time) from KDFW Reporting Station
Few Clouds Few Clouds  
Wind Chill: 80°   Ceiling: Unl
Heat Index: 80°   Visibility: 10mi
Dew Point: 54°   Wind: 8mph
Humidity: 40%   Direction: 140°SE
Pressure: 30.03"   Gusts: NA
Location:  32.84°N, 97.14°W
Report Text: KDFW 211953Z 14007KT 10SM FEW100 FEW250 27/12 A3003 RMK AO2 SLP164 T02670122
Loading
Personal Weather Stations






























Interactive Weather Map
Tropical Storm Tracking
New forecast layout! Learn more

10-Day Weather Forecast

Advertisements
Track Severe Weather on mobile